x

Diamond Shoals (41025) Wave Buoy

1:50 - Sun 30th Aug 2015 All times are EDT. -4 hours from GMT.

  • Sig Wave height 3.6ft
  • Swell Direction
  • Peak Period 10s
  • Average Period 7s
  • Wind
    7mph, 9mph gusts
  • Sea Temp 83°f
  • Ar Temp 79°f
  • Sea Pressure 1020.8mb
  • Diamond Shoals
  • Diamond Shoals

More Historic Weather Station data

Upgrade to MSW Pro to gain access to the past 30 days of data for over 8000 Wavebouys and Weather Stations around the globe.

Join Pro

Comparision Forecast

View Surf forecast
   
Dom 08/30 1:50 3.5ft 10s 7s 7 9 mph 1020.8mb 83f 79f
12:50 3.5ft 11s 7s 9
mph
1021.3mb 83f 79f
11:50 4ft 10s 7s 9 11 mph 1021.6mb 83f 79f
10:50 3.5ft 10s 7s 11 13 mph 1021.2mb 84f 78f
9:50 3.5ft 10s 7s 11 16 mph 1020.6mb 84f 78f
8:50 3.5ft 10s 7s 13
mph
1020mb 83f 78f
7:50 3.5ft 10s 8s 9 13 mph 1020mb 83f 78f
6:50 3.5ft 10s 7s 7 9 mph 1019.3mb 82f 78f
5:50 3.5ft 10s 7s 11 13 mph 1018.6mb 82f 78f
4:50 3.5ft 10s 7s 11 13 mph 1018.4mb 81f 78f
3:50 3.5ft 10s 7s 11 13 mph 1018.6mb 81f 78f
2:50 4ft 10s 8s 11 16 mph 1018.2mb 81f 79f
1:50 3.5ft 11s 6s 11
mph
1018.6mb 82f 79f
12:50 4.5ft 11s 6s 11 13 mph 1019.3mb 82f 79f
Sáb 08/29 11:50 4.5ft 11s 6s 16 18 mph 1019mb 82f 79f
10:50 4.5ft 11s 5s 18 20 mph 1018.8mb 82f 79f
9:50 4.5ft 11s 5s 18 22 mph 1019mb 82f 79f
8:50 5ft 11s 5s 20 22 mph 1018.5mb 82f 79f
7:50 5ft 11s 5s 22 25 mph 1018.1mb 82f 78f
6:50 5ft 10s 5s 22 25 mph 1018.2mb 82f 78f
5:50 5ft 11s 5s 25 27 mph 1018.3mb 82f 78f
4:50 5ft 11s 5s 22 27 mph 1018.8mb 82f 78f
3:50 5ft 11s 5s 22 25 mph 1019.4mb 82f 78f
2:50 6ft 11s 6s 22 27 mph 1019.8mb 83f 78f
1:50 5ft 11s 6s 20 25 mph 1020.3mb 83f 78f
12:50 5ft 11s 6s 18 22 mph 1020.5mb 83f 79f
11:50 5ft 10s 5s 18 22 mph 1020.7mb 83f 79f
10:50 5ft 11s 6s 18 20 mph 1021mb 83f 79f
9:50 4.5ft 10s 5s 16 18 mph 1020.8mb 82f 78f
8:50 5ft 11s 6s 20 22 mph 1020.3mb 82f 79f
7:50 5ft 11s 6s 18 20 mph 1020.5mb 82f 78f
6:50 5ft 11s 5s 22 25 mph 1019.7mb 82f 77f
5:50 4.5ft 11s 5s 18 22 mph 1019.6mb 82f 78f
4:50 5ft 11s 5s 20 22 mph 1019.4mb 82f 78f
3:50 4.5ft 11s 5s 22 27 mph 1019.7mb 82f 76f
2:50 4.5ft 10s 6s 20 22 mph 1019.9mb 82f 76f
1:50 4.5ft 11s 6s 18 20 mph 1020.4mb 82f 76f
12:50 4.5ft 11s 5s 20 22 mph 1020.7mb 82f 77f
Sex 08/28 11:50 4.5ft 11s 5s 20 25 mph 1020.5mb 82f 80f
10:50 4.5ft 11s 5s 20 22 mph 1020.6mb 82f 80f
9:50 4.5ft 11s 5s 20 25 mph 1020.6mb 82f 80f
8:50 4.5ft 8s 5s 20 25 mph 1019.9mb 82f 79f
7:50 4.5ft 11s 5s 20 25 mph 1019.7mb 83f 79f
6:50 4.5ft 11s 5s 20 25 mph 1019.6mb 84f 79f
5:50 4.5ft 8s 5s 20 25 mph 1019.5mb 84f 80f
4:50 5ft 8s 5s 20 25 mph 1019.4mb 84f 79f
3:50 5ft 8s 5s 20 25 mph 1019.5mb 83f 79f
2:50 4.5ft 8s 5s 22 27 mph 1019.7mb 82f 79f
1:50 4.5ft 5s 5s 22 27 mph 1020.1mb 82f 79f
12:50 4.5ft 8s 5s 20 25 mph 1020.3mb 82f 80f
11:50 4.5ft 5s 5s 18 22 mph 1020.3mb 82f 80f
10:50 4.5ft 5s 5s 20 25 mph 1019.9mb 82f 80f
9:50 5ft 5s 5s 20 25 mph 1019.3mb 82f 79f
8:50 5.5ft 6s 5s 22 27 mph 1018.8mb 82f 79f
7:50 5ft 6s 5s 22 27 mph 1018mb 82f 78f
6:50 4.5ft 5s 5s 22 27 mph 1017.4mb 82f 78f
5:50 4.5ft 5s 5s 20 25 mph 1017.2mb 83f 78f
4:50 4.5ft 8s 5s 22 27 mph 1016.9mb 82f 78f
3:50 4ft 8s 5s 18 22 mph 1017.1mb 82f 78f
2:50 3.5ft 7s 5s 2 7 mph 1018.3mb 83f 74f
1:50 4ft 8s 5s 13 16 mph 1018.3mb 83f 78f
12:50 3.5ft 9s 5s 18 22 mph 1017.9mb 83f 78f
Qui 08/27 11:50 3.5ft 8s 5s 18 20 mph 1017.8mb 83f 78f
10:50 4.5ft 8s 6s 16 18 mph 1018.1mb 82f 77f
9:50 4.5ft 9s 6s 13 16 mph 1018.1mb 82f 77f
8:50 4.5ft 9s 6s 11 13 mph 1017.2mb 82f 77f
7:50 4.5ft 10s 6s 9 11 mph 1016.9mb 82f 77f
6:50 5ft 9s 6s 11 16 mph 1016.6mb 82f 78f
5:50 5ft 9s 5s 11 13 mph 1016.3mb 82f 78f
4:50 4.5ft 9s 5s 11 13 mph 1016mb 82f 78f
3:50 5ft 9s 5s 11 13 mph 1016mb 82f 79f
2:50 4.5ft 9s 5s 13 18 mph 1016.3mb 82f 77f
1:50 5ft 9s 5s 20 22 mph 1015.9mb 82f 78f
12:50 5ft 9s 5s 20 22 mph 1016.1mb 82f 78f
11:50 5ft 10s 5s 20 22 mph 1016.5mb 82f 78f
10:50 4.5ft 10s 5s 29 38 mph 1016mb 82f 77f
9:50 4.5ft 10s 5s 13 16 mph 1016mb 82f 81f
8:50 4ft 11s 5s 13 16 mph 1015.2mb 82f 81f
7:50 4ft 10s 5s 16 20 mph 1015.6mb 82f 81f
6:50 3.5ft 10s 5s 18 20 mph 1014.8mb 82f 79f
5:50 3.5ft 10s 6s 13 16 mph 1014.4mb 83f 79f
4:50 3ft 11s 6s 16 18 mph 1014mb 85f 79f
3:50 3ft 11s 6s 9 20 mph 1014.7mb 85f 81f
2:50 3ft 10s 6s 4 7 mph 1014.7mb 85f 82f
1:50 3ft 10s 6s 4 7 mph 1014.8mb 85f 82f
12:50 3ft 9s 6s 7
mph
1014.9mb 85f 82f
Qua 08/26 11:50 3ft 9s 6s 7 9 mph 1015.4mb 85f 82f
10:50 3ft 9s 6s 2
mph
1015.5mb 85f 82f
9:50 3ft 9s 6s 7 9 mph 1014.7mb 86f 82f
7:50 3ft 11s 6s 2 4 mph 1014mb 86f 83f